createdAt,value
2018-11-05T00:00:35.296Z,1007.01
2018-11-05T00:01:43.938Z,1007.05
2018-11-05T00:02:52.578Z,1007.04
2018-11-05T00:04:01.218Z,1007.07
2018-11-05T00:05:09.860Z,1007.09
2018-11-05T00:06:18.758Z,1007.11
2018-11-05T00:07:27.397Z,1007.12
2018-11-05T00:08:36.033Z,1007.09
2018-11-05T00:09:44.938Z,1007.03
2018-11-05T00:10:53.572Z,1007.02
2018-11-05T00:12:02.217Z,1006.99
2018-11-05T00:13:10.861Z,1007.01
2018-11-05T00:14:19.504Z,1006.96
2018-11-05T00:15:28.143Z,1006.94
2018-11-05T00:16:36.783Z,1006.91
2018-11-05T00:17:45.422Z,1006.86
2018-11-05T00:18:54.064Z,1006.81
2018-11-05T00:20:02.699Z,1006.76
2018-11-05T00:21:11.339Z,1006.82
2018-11-05T00:22:19.973Z,1006.79
2018-11-05T00:23:28.612Z,1006.74
2018-11-05T00:24:37.781Z,1006.71
2018-11-05T00:25:46.683Z,1006.75
2018-11-05T00:26:55.327Z,1006.73
2018-11-05T00:28:03.965Z,1006.72
2018-11-05T00:29:12.609Z,1006.71
2018-11-05T00:30:21.249Z,1006.7
2018-11-05T00:31:30.153Z,1006.75
2018-11-05T00:32:39.318Z,1006.7
2018-11-05T00:33:47.965Z,1006.71
2018-11-05T00:34:57.305Z,1006.69
2018-11-05T00:36:06.210Z,1006.7
2018-11-05T00:37:15.116Z,1006.65
2018-11-05T00:38:23.759Z,1006.61
2018-11-05T00:39:32.397Z,1006.58
2018-11-05T00:40:41.041Z,1006.56
2018-11-05T00:41:49.948Z,1006.56
2018-11-05T00:42:58.579Z,1006.6
2018-11-05T00:44:07.218Z,1006.56
2018-11-05T00:45:15.858Z,1006.61
2018-11-05T00:46:24.500Z,1006.59
2018-11-05T00:47:33.134Z,1006.59
2018-11-05T00:48:42.298Z,1006.56
2018-11-05T00:49:50.938Z,1006.58
2018-11-05T00:50:59.577Z,1006.55
2018-11-05T00:52:08.473Z,1006.55
2018-11-05T00:53:17.110Z,1006.52
2018-11-05T00:54:25.750Z,1006.51
2018-11-05T00:55:34.390Z,1006.43
2018-11-05T00:56:43.032Z,1006.39
2018-11-05T00:57:51.927Z,1006.42
2018-11-05T00:59:00.563Z,1006.4
2018-11-05T01:00:09.205Z,1006.45
2018-11-05T01:01:18.109Z,1006.42
2018-11-05T01:02:26.747Z,1006.41
2018-11-05T01:03:35.388Z,1006.38
2018-11-05T01:04:44.020Z,1006.35
2018-11-05T01:05:52.664Z,1006.36
2018-11-05T01:07:01.610Z,1006.33
2018-11-05T01:08:10.253Z,1006.31
2018-11-05T01:09:18.887Z,1006.36
2018-11-05T01:10:27.530Z,1006.34
2018-11-05T01:11:36.429Z,1006.33
2018-11-05T01:12:45.074Z,1006.29
2018-11-05T01:13:53.707Z,1006.3
2018-11-05T01:15:02.348Z,1006.34
2018-11-05T01:16:10.984Z,1006.3
2018-11-05T01:17:19.625Z,1006.32
2018-11-05T01:18:28.264Z,1006.29
2018-11-05T01:19:36.902Z,1006.34
2018-11-05T01:20:45.538Z,1006.33
2018-11-05T01:21:54.182Z,1006.33
2018-11-05T01:23:02.820Z,1006.3
2018-11-05T01:24:11.452Z,1006.34
2018-11-05T01:25:20.094Z,1006.29
2018-11-05T01:26:28.730Z,1006.29
2018-11-05T01:27:37.375Z,1006.24
2018-11-05T01:28:46.011Z,1006.21
2018-11-05T01:29:54.651Z,1006.2
2018-11-05T01:31:03.286Z,1006.24
2018-11-05T01:32:12.200Z,1006.18
2018-11-05T01:33:21.101Z,1006.19
2018-11-05T01:34:29.734Z,1006.14
2018-11-05T01:35:38.369Z,1006.1
2018-11-05T01:36:47.005Z,1006.05
2018-11-05T01:37:55.655Z,1006.08
2018-11-05T01:39:04.555Z,1006.09
2018-11-05T01:40:13.197Z,1006.07
2018-11-05T01:41:21.825Z,1006.04
2018-11-05T01:42:30.470Z,1006.03
2018-11-05T01:43:39.372Z,1005.99
2018-11-05T01:44:48.015Z,1006
2018-11-05T01:45:56.909Z,1005.99
2018-11-05T01:47:05.556Z,1005.93
2018-11-05T01:48:14.194Z,1005.93
2018-11-05T01:49:22.834Z,1005.94
2018-11-05T01:50:31.463Z,1005.86
2018-11-05T01:51:40.104Z,1005.89
2018-11-05T01:52:48.745Z,1005.87
2018-11-05T01:53:57.387Z,1005.87
2018-11-05T01:55:06.309Z,1005.86
2018-11-05T01:56:14.941Z,1005.82
2018-11-05T01:57:23.573Z,1005.86
2018-11-05T01:58:32.205Z,1005.86
2018-11-05T01:59:40.852Z,1005.82
2018-11-05T02:00:49.482Z,1005.78
2018-11-05T02:01:58.122Z,1005.75
2018-11-05T02:03:06.754Z,1005.7
2018-11-05T02:04:15.723Z,1005.71
2018-11-05T02:05:24.750Z,1005.72
2018-11-05T02:06:34.352Z,1005.71
2018-11-05T02:07:43.777Z,1005.72
2018-11-05T02:08:52.862Z,1005.73
2018-11-05T02:10:01.595Z,1005.74
2018-11-05T02:11:10.224Z,1005.72
2018-11-05T02:12:18.861Z,1005.75
2018-11-05T02:13:27.622Z,1005.74
2018-11-05T02:14:36.143Z,1005.76
2018-11-05T02:15:45.041Z,1005.71
2018-11-05T02:16:53.963Z,1005.73
2018-11-05T02:18:02.590Z,1005.78
2018-11-05T02:19:11.235Z,1005.76
2018-11-05T02:20:19.868Z,1005.75
2018-11-05T02:21:28.512Z,1005.76
2018-11-05T02:22:37.408Z,1005.72
2018-11-05T02:23:46.050Z,1005.77
2018-11-05T02:24:54.689Z,1005.74
2018-11-05T02:26:03.876Z,1005.74
2018-11-05T02:27:12.582Z,1005.75
2018-11-05T02:28:21.147Z,1005.76
2018-11-05T02:29:29.788Z,1005.71
2018-11-05T02:30:38.422Z,1005.71
2018-11-05T02:31:47.316Z,1005.7
2018-11-05T02:32:55.963Z,1005.71
2018-11-05T02:34:04.599Z,1005.71
2018-11-05T02:35:13.508Z,1005.67
2018-11-05T02:36:22.404Z,1005.7
2018-11-05T02:37:31.054Z,1005.69
2018-11-05T02:38:39.956Z,1005.68
2018-11-05T02:39:48.597Z,1005.64
2018-11-05T02:40:57.491Z,1005.67
2018-11-05T02:42:06.418Z,1005.63
2018-11-05T02:43:15.056Z,1005.62
2018-11-05T02:44:23.706Z,1005.61
2018-11-05T02:45:32.860Z,1005.62
2018-11-05T02:46:41.501Z,1005.56
2018-11-05T02:47:50.404Z,1005.55
2018-11-05T02:48:59.046Z,1005.57
2018-11-05T02:50:07.942Z,1005.55
2018-11-05T02:51:16.852Z,1005.54
2018-11-05T02:52:25.769Z,1005.49
2018-11-05T02:53:34.397Z,1005.47
2018-11-05T02:54:43.312Z,1005.42
2018-11-05T02:55:52.211Z,1005.38
2018-11-05T02:57:00.862Z,1005.38
2018-11-05T02:58:09.497Z,1005.35
2018-11-05T02:59:18.143Z,1005.35
2018-11-05T03:00:26.773Z,1005.31
2018-11-05T03:01:35.408Z,1005.28
2018-11-05T03:02:44.304Z,1005.26
2018-11-05T03:03:52.952Z,1005.29
2018-11-05T03:05:02.141Z,1005.32
2018-11-05T03:06:10.775Z,1005.37
2018-11-05T03:07:19.412Z,1005.4
2018-11-05T03:08:28.045Z,1005.39
2018-11-05T03:09:36.958Z,1005.37
2018-11-05T03:10:45.594Z,1005.4
2018-11-05T03:11:54.233Z,1005.32
2018-11-05T03:13:03.391Z,1005.32
2018-11-05T03:14:12.037Z,1005.33
2018-11-05T03:15:20.674Z,1005.3
2018-11-05T03:16:29.321Z,1005.28
2018-11-05T03:17:38.211Z,1005.26
2018-11-05T03:18:46.867Z,1005.25
2018-11-05T03:19:55.505Z,1005.23
2018-11-05T03:21:04.429Z,1005.21
2018-11-05T03:22:13.058Z,1005.25
2018-11-05T03:23:21.703Z,1005.24
2018-11-05T03:24:30.345Z,1005.24
2018-11-05T03:25:38.986Z,1005.27
2018-11-05T03:26:47.627Z,1005.28
2018-11-05T03:27:56.520Z,1005.25
2018-11-05T03:29:05.158Z,1005.27
2018-11-05T03:30:13.797Z,1005.3
2018-11-05T03:31:22.451Z,1005.28
2018-11-05T03:32:31.379Z,1005.31
2018-11-05T03:33:40.608Z,1005.36
2018-11-05T03:34:51.064Z,1005.35
2018-11-05T03:35:59.882Z,1005.35
2018-11-05T03:37:08.605Z,1005.35
2018-11-05T03:38:17.247Z,1005.34
2018-11-05T03:39:25.884Z,1005.36
2018-11-05T03:40:34.795Z,1005.37
2018-11-05T03:41:43.694Z,1005.38
2018-11-05T03:42:52.335Z,1005.42
2018-11-05T03:44:00.970Z,1005.44
2018-11-05T03:45:09.613Z,1005.44
2018-11-05T03:46:18.254Z,1005.46
2018-11-05T03:47:27.157Z,1005.46
2018-11-05T03:48:35.801Z,1005.42
2018-11-05T03:49:44.697Z,1005.37
2018-11-05T03:50:53.336Z,1005.35
2018-11-05T03:52:01.976Z,1005.39
2018-11-05T03:53:10.619Z,1005.39
2018-11-05T03:54:19.252Z,1005.38
2018-11-05T03:55:27.904Z,1005.4
2018-11-05T03:56:36.900Z,1005.4
2018-11-05T03:57:46.004Z,1005.38
2018-11-05T03:58:54.637Z,1005.39
2018-11-05T04:00:03.280Z,1005.31
2018-11-05T04:01:11.917Z,1005.3
2018-11-05T04:02:20.816Z,1005.31
2018-11-05T04:03:29.488Z,1005.28
2018-11-05T04:04:38.699Z,1005.28
2018-11-05T04:05:47.330Z,1005.29
2018-11-05T04:06:55.967Z,1005.24
2018-11-05T04:08:04.612Z,1005.26
2018-11-05T04:09:13.244Z,1005.27
2018-11-05T04:10:21.885Z,1005.21
2018-11-05T04:11:30.794Z,1005.24
2018-11-05T04:12:39.707Z,1005.16
2018-11-05T04:13:48.338Z,1005.16
2018-11-05T04:14:56.978Z,1005.13
2018-11-05T04:16:05.965Z,1005.07
2018-11-05T04:17:15.378Z,1005.09
2018-11-05T04:18:24.282Z,1005.11
2018-11-05T04:19:33.186Z,1005.06
2018-11-05T04:20:41.817Z,1005.04
2018-11-05T04:21:50.720Z,1005.03
2018-11-05T04:22:59.367Z,1005.05
2018-11-05T04:24:08.270Z,1005.05
2018-11-05T04:25:16.912Z,1005.03
2018-11-05T04:26:25.544Z,1005.05
2018-11-05T04:27:34.524Z,1005.03
2018-11-05T04:28:43.933Z,1005.02
2018-11-05T04:29:52.580Z,1004.97
2018-11-05T04:31:01.209Z,1004.94
2018-11-05T04:32:09.854Z,1004.92
2018-11-05T04:33:18.487Z,1004.9
2018-11-05T04:34:27.396Z,1004.87
2018-11-05T04:35:36.023Z,1004.88
2018-11-05T04:36:44.662Z,1004.88
2018-11-05T04:37:53.572Z,1004.87
2018-11-05T04:39:02.477Z,1004.84
2018-11-05T04:40:11.119Z,1004.82
2018-11-05T04:41:19.748Z,1004.83
2018-11-05T04:42:28.389Z,1004.84
2018-11-05T04:43:37.023Z,1004.83
2018-11-05T04:44:45.673Z,1004.81
2018-11-05T04:45:54.301Z,1004.8
2018-11-05T04:47:02.951Z,1004.81
2018-11-05T04:48:12.122Z,1004.84
2018-11-05T04:49:20.769Z,1004.87
2018-11-05T04:50:29.668Z,1004.84
2018-11-05T04:51:38.308Z,1004.86
2018-11-05T04:52:46.945Z,1004.83
2018-11-05T04:53:55.592Z,1004.82
2018-11-05T04:55:04.225Z,1004.83
2018-11-05T04:56:13.132Z,1004.83
2018-11-05T04:57:21.763Z,1004.84
2018-11-05T04:58:30.401Z,1004.84
2018-11-05T04:59:39.051Z,1004.84
2018-11-05T05:00:47.686Z,1004.84
2018-11-05T05:01:56.331Z,1004.82
2018-11-05T05:03:04.994Z,1004.85
2018-11-05T05:04:14.318Z,1004.89
2018-11-05T05:05:23.483Z,1004.83
2018-11-05T05:06:32.392Z,1004.83
2018-11-05T05:07:41.028Z,1004.8
2018-11-05T05:08:49.673Z,1004.81
2018-11-05T05:09:58.312Z,1004.84
2018-11-05T05:11:06.957Z,1004.85
2018-11-05T05:12:15.585Z,1004.86
2018-11-05T05:13:24.223Z,1004.87
2018-11-05T05:14:32.866Z,1004.88
2018-11-05T05:15:41.504Z,1004.87
2018-11-05T05:16:50.143Z,1004.87
2018-11-05T05:17:58.782Z,1004.83
2018-11-05T05:19:07.423Z,1004.83
2018-11-05T05:20:16.318Z,1004.87
2018-11-05T05:21:25.230Z,1004.84
2018-11-05T05:22:34.502Z,1004.79
2018-11-05T05:23:43.023Z,1004.78
2018-11-05T05:24:51.656Z,1004.79
2018-11-05T05:26:00.299Z,1004.8
2018-11-05T05:27:08.932Z,1004.87
2018-11-05T05:28:17.572Z,1004.89
2018-11-05T05:29:26.208Z,1004.94
2018-11-05T05:30:34.851Z,1005
2018-11-05T05:31:43.490Z,1004.98
2018-11-05T05:32:52.138Z,1004.99
2018-11-05T05:34:01.110Z,1004.97
2018-11-05T05:35:09.742Z,1005.02
2018-11-05T05:36:18.377Z,1005
2018-11-05T05:37:27.014Z,1004.97
2018-11-05T05:38:35.916Z,1004.98
2018-11-05T05:39:44.816Z,1004.96
2018-11-05T05:40:53.515Z,1004.96
2018-11-05T05:42:02.452Z,1004.93
2018-11-05T05:43:11.092Z,1004.91
2018-11-05T05:44:19.723Z,1004.91
2018-11-05T05:45:28.364Z,1004.9
2018-11-05T05:46:37.005Z,1004.89
2018-11-05T05:47:45.641Z,1004.91
2018-11-05T05:48:54.274Z,1004.93
2018-11-05T05:50:02.945Z,1004.96
2018-11-05T05:51:11.555Z,1004.99
2018-11-05T05:52:20.463Z,1004.96
2018-11-05T05:53:29.101Z,1004.93
2018-11-05T05:54:37.732Z,1004.91
2018-11-05T05:55:46.369Z,1004.92
2018-11-05T05:56:55.006Z,1004.89
2018-11-05T05:58:03.651Z,1004.92
2018-11-05T05:59:12.285Z,1004.91
2018-11-05T06:00:20.921Z,1004.93
2018-11-05T06:01:29.559Z,1004.97
2018-11-05T06:02:38.465Z,1004.99
2018-11-05T06:03:47.102Z,1005
2018-11-05T06:04:55.744Z,1004.96
2018-11-05T06:06:04.783Z,1004.92
2018-11-05T06:07:13.282Z,1004.96
2018-11-05T06:08:21.918Z,1005.02
2018-11-05T06:09:30.556Z,1005.03
2018-11-05T06:10:39.194Z,1005.04
2018-11-05T06:11:47.824Z,1005.03
2018-11-05T06:12:56.467Z,1005.03
2018-11-05T06:14:05.370Z,1005.03
2018-11-05T06:15:14.269Z,1005.08
2018-11-05T06:16:22.904Z,1005.05
2018-11-05T06:17:31.546Z,1005.06
2018-11-05T06:18:40.183Z,1005.07
2018-11-05T06:19:48.839Z,1005.11
2018-11-05T06:20:57.752Z,1005.12
2018-11-05T06:22:06.811Z,1005.11
2018-11-05T06:23:15.605Z,1005.18
2018-11-05T06:24:24.841Z,1005.16
2018-11-05T06:25:33.912Z,1005.12
2018-11-05T06:26:42.637Z,1005.16
2018-11-05T06:27:51.670Z,1005.15
2018-11-05T06:29:00.756Z,1005.16
2018-11-05T06:30:09.732Z,1005.15
2018-11-05T06:31:18.373Z,1005.15
2018-11-05T06:32:27.009Z,1005.16
2018-11-05T06:33:35.645Z,1005.16
2018-11-05T06:34:44.278Z,1005.2
2018-11-05T06:35:52.922Z,1005.16
2018-11-05T06:37:01.559Z,1005.15
2018-11-05T06:38:10.462Z,1005.13
2018-11-05T06:39:19.093Z,1005.11
2018-11-05T06:40:28.016Z,1005.1
2018-11-05T06:41:36.936Z,1005.09
2018-11-05T06:42:45.563Z,1005.12
2018-11-05T06:43:54.458Z,1005.15
2018-11-05T06:45:03.548Z,1005.17
2018-11-05T06:46:12.021Z,1005.14
2018-11-05T06:47:20.662Z,1005.17
2018-11-05T06:48:29.568Z,1005.13
2018-11-05T06:49:38.475Z,1005.13
2018-11-05T06:50:47.119Z,1005.11
2018-11-05T06:51:55.756Z,1005.06
2018-11-05T06:53:04.672Z,1005.05
2018-11-05T06:54:13.305Z,1005.03
2018-11-05T06:55:21.944Z,1005.08
2018-11-05T06:56:30.852Z,1005.03
2018-11-05T06:57:39.511Z,1005
2018-11-05T06:58:48.537Z,1004.97
2018-11-05T06:59:57.180Z,1004.94
2018-11-05T07:01:05.815Z,1004.92
2018-11-05T07:02:14.473Z,1004.91
2018-11-05T07:03:23.096Z,1004.9
2018-11-05T07:04:32.002Z,1004.89
2018-11-05T07:05:40.645Z,1004.87
2018-11-05T07:06:49.619Z,1004.9
2018-11-05T07:07:58.261Z,1004.93
2018-11-05T07:09:07.462Z,1004.93
2018-11-05T07:10:16.524Z,1004.9
2018-11-05T07:11:25.502Z,1004.88
2018-11-05T07:12:35.762Z,1004.85
2018-11-05T07:13:44.401Z,1004.89
2018-11-05T07:14:53.038Z,1004.9
2018-11-05T07:16:01.946Z,1004.92
2018-11-05T07:17:10.589Z,1004.9
2018-11-05T07:18:19.540Z,1004.93
2018-11-05T07:19:28.161Z,1004.95
2018-11-05T07:20:36.770Z,1004.98
2018-11-05T07:21:45.945Z,1004.97
2018-11-05T07:22:54.584Z,1004.97
2018-11-05T07:24:03.227Z,1004.89
2018-11-05T07:25:12.130Z,1004.93
2018-11-05T07:26:20.778Z,1004.95
2018-11-05T07:27:29.687Z,1004.95
2018-11-05T07:28:38.646Z,1004.96
2018-11-05T07:29:47.293Z,1005.05
2018-11-05T07:30:55.921Z,1005.05
2018-11-05T07:32:04.563Z,1005.03
2018-11-05T07:33:13.297Z,1005.05
2018-11-05T07:34:22.303Z,1005.07
2018-11-05T07:35:30.843Z,1005.09
2018-11-05T07:36:39.484Z,1005.04
2018-11-05T07:37:48.120Z,1005.06
2018-11-05T07:38:56.767Z,1005.06
2018-11-05T07:40:05.410Z,1005.08
2018-11-05T07:41:14.044Z,1005.11
2018-11-05T07:42:22.679Z,1005.08
2018-11-05T07:43:31.313Z,1005.14
2018-11-05T07:44:39.966Z,1005.15
2018-11-05T07:45:48.601Z,1005.2
2018-11-05T07:46:57.243Z,1005.23
2018-11-05T07:48:06.138Z,1005.27
2018-11-05T07:49:14.785Z,1005.29
2018-11-05T07:50:23.627Z,1005.32
2018-11-05T07:51:32.958Z,1005.33
2018-11-05T07:52:41.585Z,1005.35
2018-11-05T07:53:50.251Z,1005.38
2018-11-05T07:54:58.871Z,1005.35
2018-11-05T07:56:07.592Z,1005.38
2018-11-05T07:57:16.611Z,1005.38
2018-11-05T07:58:25.251Z,1005.33
2018-11-05T07:59:34.171Z,1005.33
2018-11-05T08:00:42.810Z,1005.37
2018-11-05T08:01:51.455Z,1005.31
2018-11-05T08:03:00.249Z,1005.33
2018-11-05T08:04:08.814Z,1005.3
2018-11-05T08:05:17.513Z,1005.26
2018-11-05T08:06:26.169Z,1005.24
2018-11-05T08:07:35.080Z,1005.27
2018-11-05T08:08:43.987Z,1005.28
2018-11-05T08:09:52.626Z,1005.24
2018-11-05T08:11:01.274Z,1005.17
2018-11-05T08:12:09.901Z,1005.19
2018-11-05T08:13:18.543Z,1005.18
2018-11-05T08:14:27.309Z,1005.21
2018-11-05T08:15:35.829Z,1005.2
2018-11-05T08:16:44.465Z,1005.18
2018-11-05T08:17:53.099Z,1005.14
2018-11-05T08:19:01.740Z,1005.18
2018-11-05T08:20:10.379Z,1005.13
2018-11-05T08:21:19.030Z,1005.13
2018-11-05T08:22:27.663Z,1005.1
2018-11-05T08:23:36.587Z,1005.12
2018-11-05T08:24:45.230Z,1005.15
2018-11-05T08:25:53.870Z,1005.12
2018-11-05T08:27:02.770Z,1005.13
2018-11-05T08:28:11.410Z,1005.1
2018-11-05T08:29:20.054Z,1005.07
2018-11-05T08:30:28.689Z,1005.07
2018-11-05T08:31:37.334Z,1005.05
2018-11-05T08:32:46.231Z,1005.07
2018-11-05T08:33:55.147Z,1005.01
2018-11-05T08:35:04.047Z,1005
2018-11-05T08:36:12.986Z,1005.04
2018-11-05T08:37:21.625Z,1005.04
2018-11-05T08:38:30.266Z,1005.03
2018-11-05T08:39:38.909Z,1004.98
2018-11-05T08:40:47.549Z,1004.97
2018-11-05T08:41:56.192Z,1004.92
2018-11-05T08:43:04.826Z,1004.93
2018-11-05T08:44:13.471Z,1004.92
2018-11-05T08:45:22.114Z,1004.91
2018-11-05T08:46:31.019Z,1004.92
2018-11-05T08:47:39.654Z,1004.91
2018-11-05T08:48:48.567Z,1004.9
2018-11-05T08:49:57.510Z,1004.83
2018-11-05T08:51:06.267Z,1004.83
2018-11-05T08:52:14.748Z,1004.8
2018-11-05T08:53:23.391Z,1004.8
2018-11-05T08:54:32.031Z,1004.78
2018-11-05T08:55:41.808Z,1004.77
2018-11-05T08:56:50.461Z,1004.76
2018-11-05T08:57:59.097Z,1004.8
2018-11-05T08:59:07.737Z,1004.75
2018-11-05T09:00:16.663Z,1004.72
2018-11-05T09:01:25.599Z,1004.77
2018-11-05T09:02:34.234Z,1004.8
2018-11-05T09:03:42.875Z,1004.75
2018-11-05T09:04:51.692Z,1004.69
2018-11-05T09:06:00.435Z,1004.7
2018-11-05T09:07:09.071Z,1004.66
2018-11-05T09:08:17.715Z,1004.66
2018-11-05T09:09:26.356Z,1004.61
2018-11-05T09:10:35.799Z,1004.63
2018-11-05T09:11:44.326Z,1004.58
2018-11-05T09:12:52.817Z,1004.59
2018-11-05T09:14:01.463Z,1004.58
2018-11-05T09:15:10.366Z,1004.58
2018-11-05T09:16:19.124Z,1004.57
2018-11-05T09:17:27.652Z,1004.55
2018-11-05T09:18:36.293Z,1004.59
2018-11-05T09:19:44.938Z,1004.51
2018-11-05T09:20:53.680Z,1004.51
2018-11-05T09:22:03.013Z,1004.54
2018-11-05T09:23:11.654Z,1004.5
2018-11-05T09:24:20.284Z,1004.45
2018-11-05T09:25:28.934Z,1004.4
2018-11-05T09:26:37.572Z,1004.39
2018-11-05T09:27:47.336Z,1004.4
2018-11-05T09:28:56.263Z,1004.39
2018-11-05T09:30:04.913Z,1004.38
2018-11-05T09:31:13.558Z,1004.34
2018-11-05T09:32:22.208Z,1004.31
2018-11-05T09:33:30.846Z,1004.36
2018-11-05T09:34:39.479Z,1004.3
2018-11-05T09:35:48.121Z,1004.3
2018-11-05T09:36:56.759Z,1004.38
2018-11-05T09:38:05.412Z,1004.38
2018-11-05T09:39:14.043Z,1004.39
2018-11-05T09:40:22.958Z,1004.35
2018-11-05T09:41:31.591Z,1004.4
2018-11-05T09:42:40.267Z,1004.34
2018-11-05T09:43:49.236Z,1004.45
2018-11-05T09:44:57.881Z,1004.45
2018-11-05T09:46:06.521Z,1004.52
2018-11-05T09:47:15.473Z,1004.52
2018-11-05T09:48:24.111Z,1004.53
2018-11-05T09:49:32.806Z,1004.53
2018-11-05T09:50:41.577Z,1004.5
2018-11-05T09:51:50.542Z,1004.45
2018-11-05T09:52:59.194Z,1004.44
2018-11-05T09:54:07.832Z,1004.44
2018-11-05T09:55:16.478Z,1004.41
2018-11-05T09:56:25.110Z,1004.47
2018-11-05T09:57:33.761Z,1004.48
2018-11-05T09:58:42.396Z,1004.51
2018-11-05T09:59:51.315Z,1004.47
2018-11-05T10:00:59.947Z,1004.51
2018-11-05T10:02:08.598Z,1004.53
2018-11-05T10:03:17.652Z,1004.51
2018-11-05T10:04:27.250Z,1004.53
2018-11-05T10:05:36.272Z,1004.56
2018-11-05T10:06:45.269Z,1004.53
2018-11-05T10:07:53.920Z,1004.53
2018-11-05T10:09:02.561Z,1004.55
2018-11-05T10:10:11.479Z,1004.53
2018-11-05T10:11:20.969Z,1004.53
2018-11-05T10:12:29.880Z,1004.51
2018-11-05T10:13:38.519Z,1004.5
2018-11-05T10:14:47.170Z,1004.47
2018-11-05T10:15:55.805Z,1004.47
2018-11-05T10:17:04.724Z,1004.41
2018-11-05T10:18:13.355Z,1004.4
2018-11-05T10:19:22.001Z,1004.37
2018-11-05T10:20:31.191Z,1004.38
2018-11-05T10:21:39.832Z,1004.4
2018-11-05T10:22:48.742Z,1004.4
2018-11-05T10:23:57.374Z,1004.41
2018-11-05T10:25:06.159Z,1004.31
2018-11-05T10:26:14.710Z,1004.27
2018-11-05T10:27:23.316Z,1004.16
2018-11-05T10:28:31.960Z,1004.15
2018-11-05T10:29:40.598Z,1004.16
2018-11-05T10:30:49.242Z,1004.22
2018-11-05T10:31:57.883Z,1004.2
2018-11-05T10:33:06.859Z,1004.15
2018-11-05T10:34:15.779Z,1004.15
2018-11-05T10:35:24.425Z,1004.16
2018-11-05T10:36:33.329Z,1004.17
2018-11-05T10:37:41.979Z,1004.18
2018-11-05T10:38:50.618Z,1004.2
2018-11-05T10:39:59.312Z,1004.14
2018-11-05T10:41:08.957Z,1004.15
2018-11-05T10:42:17.606Z,1004.12
2018-11-05T10:43:26.246Z,1004.09
2018-11-05T10:44:34.903Z,1004.18
2018-11-05T10:45:43.537Z,1004.19
2018-11-05T10:46:52.446Z,1004.21
2018-11-05T10:48:01.093Z,1004.19
2018-11-05T10:49:09.732Z,1004.07
2018-11-05T10:50:18.761Z,1004.04
2018-11-05T10:51:27.950Z,1004.01
2018-11-05T10:52:37.235Z,1004.05
2018-11-05T10:53:45.871Z,1004.06
2018-11-05T10:54:55.065Z,1004.08
2018-11-05T10:56:03.998Z,1004.15
2018-11-05T10:57:12.912Z,1004.18
2018-11-05T10:58:21.661Z,1004.17
2018-11-05T10:59:30.195Z,1004.15
2018-11-05T11:00:39.371Z,1004.15
2018-11-05T11:01:48.019Z,1004.16
2018-11-05T11:02:56.995Z,1004.13
2018-11-05T11:04:05.957Z,1004.14
2018-11-05T11:05:14.824Z,1004.17
2018-11-05T11:06:23.466Z,1004.19
2018-11-05T11:07:32.377Z,1004.19
2018-11-05T11:08:41.023Z,1004.28
2018-11-05T11:09:49.673Z,1004.29
2018-11-05T11:10:58.310Z,1004.35
2018-11-05T11:12:06.965Z,1004.3
2018-11-05T11:13:15.602Z,1004.29
2018-11-05T11:14:24.250Z,1004.29
2018-11-05T11:15:32.883Z,1004.28
2018-11-05T11:16:41.532Z,1004.27
2018-11-05T11:17:50.173Z,1004.29
2018-11-05T11:18:58.823Z,1004.29
2018-11-05T11:20:07.728Z,1004.27
2018-11-05T11:21:16.634Z,1004.25
2018-11-05T11:22:25.273Z,1004.22
2018-11-05T11:23:33.913Z,1004.24
2018-11-05T11:24:42.563Z,1004.23
2018-11-05T11:25:51.484Z,1004.24
2018-11-05T11:27:00.124Z,1004.18
2018-11-05T11:28:08.783Z,1004.16
2018-11-05T11:29:18.049Z,1004.11
2018-11-05T11:30:26.533Z,1004.05
2018-11-05T11:31:35.180Z,1003.97
2018-11-05T11:32:44.126Z,1003.97
2018-11-05T11:33:53.295Z,1003.96
2018-11-05T11:35:01.940Z,1003.99
2018-11-05T11:36:10.946Z,1003.97
2018-11-05T11:37:19.731Z,1004
2018-11-05T11:38:28.490Z,1003.99
2018-11-05T11:39:37.146Z,1003.97
2018-11-05T11:40:45.780Z,1003.98
2018-11-05T11:41:54.428Z,1004
2018-11-05T11:43:03.068Z,1003.97
2018-11-05T11:44:11.828Z,1003.99
2018-11-05T11:45:20.355Z,1003.96
2018-11-05T11:46:29.009Z,1003.95
2018-11-05T11:47:37.644Z,1003.9
2018-11-05T11:48:46.286Z,1003.89
2018-11-05T11:49:54.933Z,1003.88
2018-11-05T11:51:03.580Z,1003.83
2018-11-05T11:52:12.216Z,1003.79
2018-11-05T11:53:21.251Z,1003.78
2018-11-05T11:54:29.764Z,1003.75
2018-11-05T11:55:38.412Z,1003.69
2018-11-05T11:56:47.067Z,1003.65
2018-11-05T11:57:55.695Z,1003.67
2018-11-05T11:59:04.928Z,1003.67
2018-11-05T12:00:13.861Z,1003.68
2018-11-05T12:01:22.524Z,1003.66
2018-11-05T12:02:31.145Z,1003.74
2018-11-05T12:03:40.082Z,1003.72
2018-11-05T12:04:48.784Z,1003.68
2018-11-05T12:05:57.367Z,1003.65
2018-11-05T12:07:06.011Z,1003.7
2018-11-05T12:08:14.653Z,1003.68
2018-11-05T12:09:23.292Z,1003.75
2018-11-05T12:10:31.941Z,1003.73
2018-11-05T12:11:40.579Z,1003.69
2018-11-05T12:12:49.225Z,1003.72
2018-11-05T12:13:57.886Z,1003.71
2018-11-05T12:15:07.948Z,1003.66
2018-11-05T12:16:16.489Z,1003.65
2018-11-05T12:17:25.135Z,1003.6
2018-11-05T12:18:34.081Z,1003.58
2018-11-05T12:19:43.040Z,1003.59
2018-11-05T12:20:51.680Z,1003.61
2018-11-05T12:22:00.430Z,1003.59
2018-11-05T12:23:09.082Z,1003.6
2018-11-05T12:24:18.018Z,1003.62
2018-11-05T12:25:27.007Z,1003.56
2018-11-05T12:26:35.927Z,1003.52
2018-11-05T12:27:44.569Z,1003.5
2018-11-05T12:28:53.543Z,1003.45
2018-11-05T12:30:02.401Z,1003.4
2018-11-05T12:31:11.077Z,1003.38
2018-11-05T12:32:19.995Z,1003.36
2018-11-05T12:33:28.637Z,1003.34
2018-11-05T12:34:37.550Z,1003.34
2018-11-05T12:35:46.193Z,1003.39
2018-11-05T12:36:55.115Z,1003.4
2018-11-05T12:38:03.768Z,1003.37
2018-11-05T12:39:12.434Z,1003.41
2018-11-05T12:40:21.242Z,1003.36
2018-11-05T12:41:29.872Z,1003.39
2018-11-05T12:42:38.801Z,1003.39
2018-11-05T12:43:47.449Z,1003.39
2018-11-05T12:44:56.165Z,1003.43
2018-11-05T12:46:04.814Z,1003.42
2018-11-05T12:47:13.748Z,1003.41
2018-11-05T12:48:22.450Z,1003.39
2018-11-05T12:49:31.718Z,1003.34
2018-11-05T12:50:40.452Z,1003.31
2018-11-05T12:51:49.413Z,1003.32
2018-11-05T12:52:58.518Z,1003.34
2018-11-05T12:54:07.421Z,1003.32
2018-11-05T12:55:16.065Z,1003.33
2018-11-05T12:56:24.699Z,1003.35
2018-11-05T12:57:33.350Z,1003.29
2018-11-05T12:58:41.991Z,1003.29
2018-11-05T12:59:50.911Z,1003.24
2018-11-05T13:00:59.609Z,1003.21
2018-11-05T13:02:08.344Z,1003.2
2018-11-05T13:03:16.984Z,1003.19
2018-11-05T13:04:25.633Z,1003.18
2018-11-05T13:05:34.270Z,1003.21
2018-11-05T13:06:42.948Z,1003.2
2018-11-05T13:07:51.557Z,1003.22
2018-11-05T13:09:00.746Z,1003.2
2018-11-05T13:10:09.649Z,1003.2
2018-11-05T13:11:18.293Z,1003.14
2018-11-05T13:12:27.197Z,1003.15
2018-11-05T13:13:35.842Z,1003.15
2018-11-05T13:14:44.490Z,1003.21
2018-11-05T13:15:53.424Z,1003.17
2018-11-05T13:17:02.334Z,1003.18
2018-11-05T13:18:10.980Z,1003.18
2018-11-05T13:19:19.629Z,1003.17
2018-11-05T13:20:28.272Z,1003.13
2018-11-05T13:21:36.911Z,1003.11
2018-11-05T13:22:45.868Z,1003.09
2018-11-05T13:23:54.795Z,1003.07
2018-11-05T13:25:03.696Z,1003
2018-11-05T13:26:12.344Z,1003
2018-11-05T13:27:21.254Z,1003.03
2018-11-05T13:28:30.042Z,1002.98
2018-11-05T13:29:38.538Z,1002.94
2018-11-05T13:30:47.538Z,1002.94
2018-11-05T13:31:56.453Z,1002.89
2018-11-05T13:33:05.434Z,1002.89
2018-11-05T13:34:14.345Z,1002.92
2018-11-05T13:35:22.990Z,1002.95
2018-11-05T13:36:31.738Z,1002.91
2018-11-05T13:37:41.344Z,1002.94
2018-11-05T13:38:51.455Z,1002.93
2018-11-05T13:40:00.097Z,1002.88
2018-11-05T13:41:08.742Z,1002.9
2018-11-05T13:42:17.385Z,1002.9
2018-11-05T13:43:26.294Z,1002.87
2018-11-05T13:44:34.969Z,1002.87
2018-11-05T13:45:43.806Z,1002.86
2018-11-05T13:46:52.685Z,1002.85
2018-11-05T13:48:01.084Z,1002.87
2018-11-05T13:49:11.176Z,1002.81
2018-11-05T13:50:19.630Z,1002.77
2018-11-05T13:51:28.905Z,1002.7
2018-11-05T13:52:37.678Z,1002.68
2018-11-05T13:53:46.516Z,1002.67
2018-11-05T13:54:55.384Z,1002.66